< < Back
Terminal Aerodrome Forecast


Current Version              Previous Versions:   1  2  3  4  5  6  7  8  9  

Terminal Aerodrome Forecast

827
FTUS44 KBMX 061700
TAFANB
TAF
KANB 061721Z 0618/0718 03005KT P6SM BKN050
     FM062100 33005KT P6SM SCT050
     FM070300 00000KT P6SM SKC=



Latest METAR

482
SAUS70 KWBC 062000 RRC
MTRANB
METAR KANB 061953Z AUTO 00000KT 10SM CLR 08/M01 A3043 RMK AO2 SLP314
T00781011


USA.gov is the U.S. government's official web portal to all federal, state and local government web resources and services.